Time;durP1;ratioP1;P1;durP2;ratioP2;P2;SDS_P1;SDS_P2;PMS_P1;PMS_P2;Temp;Humidity;BMP_temperature;BMP_pressure;BME280_temperature;BME280_humidity;BME280_pressure;Samples;Min_cycle;Max_cycle;Signal;HPM_P1;HPM_P2
2022/09/10 00:03:25;;;;;;;1.98;0.50;;;;;;;13.84;100.00;98020.84;15281658;19;20008;-77
2022/09/10 00:08:33;;;;;;;2.88;0.70;;;;;;;13.81;100.00;98026.66;15280399;19;20036;-76
2022/09/10 00:13:39;;;;;;;1.50;0.43;;;;;;;13.83;100.00;98024.56;15277824;19;20014;-78
2022/09/10 00:18:44;;;;;;;1.77;0.60;;;;;;;13.83;100.00;98024.56;15269688;19;20086;-78
2022/09/10 00:23:51;;;;;;;1.10;0.60;;;;;;;13.81;100.00;98026.66;15285042;19;20023;-79
2022/09/10 00:28:58;;;;;;;1.15;0.63;;;;;;;13.77;100.00;98016.38;15283259;19;20038;-79
2022/09/10 00:34:04;;;;;;;4.25;0.77;;;;;;;13.71;100.00;98023.41;15285814;19;20007;-80
2022/09/10 00:39:13;;;;;;;1.60;0.75;;;;;;;13.63;100.00;98024.38;15281756;19;20329;-80
2022/09/10 00:44:50;;;;;;;3.10;0.73;;;;;;;13.53;100.00;98021.97;15284842;19;20014;-79
2022/09/10 00:49:58;;;;;;;1.17;0.50;;;;;;;13.49;100.00;98022.53;15282360;19;20010;-79
2022/09/10 00:55:07;;;;;;;2.00;0.70;;;;;;;13.50;100.00;98019.63;15286360;19;20020;-80
2022/09/10 01:00:14;;;;;;;2.83;0.80;;;;;;;13.51;100.00;98026.72;15278294;19;20050;-79
2022/09/10 01:05:21;;;;;;;2.55;0.70;;;;;;;13.46;100.00;98023.78;15280472;19;20026;-75
2022/09/10 01:10:33;;;;;;;1.50;0.60;;;;;;;13.49;100.00;98011.72;15272691;19;20018;-77
2022/09/10 01:15:48;;;;;;;2.40;0.60;;;;;;;13.48;100.00;98010.84;15276954;19;20409;-78
2022/09/10 01:21:18;;;;;;;1.17;0.50;;;;;;;13.49;100.00;98006.31;15275549;19;20018;-79
2022/09/10 01:26:46;;;;;;;2.20;0.70;;;;;;;13.46;100.00;98017.50;15278365;19;20026;-78
2022/09/10 01:32:00;;;;;;;1.73;0.60;;;;;;;13.41;100.00;98020.78;15281124;19;20015;-78
2022/09/10 01:37:10;;;;;;;1.67;0.57;;;;;;;13.40;100.00;98025.38;15277341;19;20438;-79
2022/09/10 01:42:14;;;;;;;1.80;0.68;;;;;;;13.35;100.00;98022.34;15280492;19;20086;-77
2022/09/10 01:47:32;;;;;;;1.75;0.50;;;;;;;13.36;100.00;98028.56;15279734;19;20027;-77
2022/09/10 01:52:48;;;;;;;2.55;0.80;;;;;;;13.33;100.00;98032.50;15277013;19;20014;-78
2022/09/10 01:58:00;;;;;;;1.38;0.60;;;;;;;13.30;100.00;98030.16;15271254;19;20015;-77
2022/09/10 02:03:19;;;;;;;1.67;0.50;;;;;;;13.29;100.00;98033.06;15277810;19;20003;-78
2022/09/10 02:08:30;;;;;;;0.88;0.45;;;;;;;13.27;100.00;98027.88;15275063;19;20010;-78
2022/09/10 02:13:37;;;;;;;1.17;0.50;;;;;;;13.22;100.00;98023.03;15276840;19;20014;-77
2022/09/10 02:19:08;;;;;;;2.55;0.80;;;;;;;13.20;100.00;98024.22;15277416;19;20023;-77
2022/09/10 02:24:14;;;;;;;1.67;0.70;;;;;;;13.16;100.00;98023.75;15281813;19;20039;-79
2022/09/10 02:29:19;;;;;;;4.22;0.88;;;;;;;13.16;100.00;98025.63;15271652;19;20083;-78
2022/09/10 02:34:26;;;;;;;1.48;0.60;;;;;;;13.16;100.00;98025.63;15281786;19;20066;-78
2022/09/10 02:39:31;;;;;;;2.88;0.60;;;;;;;13.15;100.00;98030.19;15276916;19;20011;-76
2022/09/10 02:44:36;;;;;;;2.00;0.70;;;;;;;13.15;100.00;98026.66;15294633;19;20006;-79
2022/09/10 02:49:44;;;;;;;1.23;0.55;;;;;;;13.13;100.00;98034.94;15291716;19;20551;-76
2022/09/10 02:54:50;;;;;;;1.70;0.70;;;;;;;13.14;100.00;98042.03;15297445;19;20482;-78
2022/09/10 02:59:55;;;;;;;3.15;0.65;;;;;;;13.15;100.00;98049.13;15291162;19;20002;-79
2022/09/10 03:05:03;;;;;;;1.50;0.60;;;;;;;13.19;100.00;98039.63;15299443;19;20381;-78
2022/09/10 03:10:10;;;;;;;2.22;0.70;;;;;;;13.23;100.00;98034.66;15330768;19;20006;-75
2022/09/10 03:15:14;;;;;;;1.50;0.77;;;;;;;13.28;100.00;98042.22;15331356;19;20456;-78
2022/09/10 03:20:24;;;;;;;1.60;0.60;;;;;;;13.29;100.00;98033.91;15285793;19;20021;-76
2022/09/10 03:25:36;;;;;;;2.03;0.68;;;;;;;13.23;100.00;98035.50;15291436;19;20010;-76
2022/09/10 03:30:42;;;;;;;1.73;0.70;;;;;;;13.22;100.00;98024.88;15347390;19;20010;-76
2022/09/10 03:35:51;;;;;;;2.67;0.70;;;;;;;13.20;100.00;98027.78;15343238;19;20018;-76
2022/09/10 03:40:56;;;;;;;1.70;0.50;;;;;;;13.18;100.00;98031.69;15283965;19;20018;-77
2022/09/10 03:46:01;;;;;;;2.58;0.70;;;;;;;13.18;100.00;98037.94;15283930;19;20018;-77
2022/09/10 03:51:09;;;;;;;0.90;0.50;;;;;;;13.20;100.00;98038.59;15297668;19;20022;-77
2022/09/10 03:56:18;;;;;;;0.98;0.50;;;;;;;13.24;100.00;98045.28;15338658;19;20514;-77
2022/09/10 04:01:24;;;;;;;2.03;0.52;;;;;;;13.23;100.00;98043.59;15285356;19;20030;-77
2022/09/10 04:06:31;;;;;;;1.88;0.50;;;;;;;13.19;100.00;98034.22;15282533;19;20022;-76
2022/09/10 04:11:36;;;;;;;1.95;0.70;;;;;;;13.21;100.00;98036.72;15282354;19;20039;-77
2022/09/10 04:16:41;;;;;;;1.55;0.60;;;;;;;13.19;100.00;98030.66;14768832;19;9999999;-77
2022/09/10 04:21:52;;;;;;;0.85;0.40;;;;;;;13.20;100.00;98024.22;15283160;19;20006;-76
2022/09/10 04:26:57;;;;;;;4.70;0.52;;;;;;;13.18;100.00;98028.97;15288398;19;20021;-77
2022/09/10 04:32:02;;;;;;;1.73;0.30;;;;;;;13.13;100.00;98034.94;15284422;19;20011;-76
2022/09/10 04:37:12;;;;;;;0.98;0.40;;;;;;;13.16;100.00;98039.16;15281938;19;20022;-78
2022/09/10 04:42:23;;;;;;;0.82;0.40;;;;;;;13.16;100.00;98029.16;15278531;19;20019;-77
2022/09/10 04:47:29;;;;;;;1.02;0.52;;;;;;;13.16;100.00;98023.75;15285920;19;20861;-78
2022/09/10 04:52:36;;;;;;;1.55;0.50;;;;;;;13.16;100.00;98023.75;15285615;19;20018;-78
2022/09/10 04:57:41;;;;;;;2.20;0.55;;;;;;;13.10;100.00;98025.34;15285462;19;20018;-78
2022/09/10 05:02:46;;;;;;;1.58;0.57;;;;;;;13.06;100.00;98034.03;15287285;19;21023;-80
2022/09/10 05:07:54;;;;;;;1.30;0.50;;;;;;;13.10;100.00;98032.63;15282441;19;20125;-79
2022/09/10 05:12:59;;;;;;;1.15;0.50;;;;;;;13.12;100.00;98033.25;15289744;19;20019;-76
2022/09/10 05:18:03;;;;;;;1.30;0.63;;;;;;;13.17;100.00;98033.56;15286811;19;20025;-78
2022/09/10 05:23:16;;;;;;;1.95;0.55;;;;;;;13.19;100.00;98023.41;15286435;19;20034;-77
2022/09/10 05:28:21;;;;;;;2.17;0.70;;;;;;;13.22;100.00;98039.25;15281707;19;20007;-75
2022/09/10 05:33:26;;;;;;;3.40;0.80;;;;;;;13.22;100.00;98033.00;15283443;19;20288;-80
2022/09/10 05:38:34;;;;;;;1.65;0.70;;;;;;;13.30;100.00;98032.88;15283684;19;21118;-79
2022/09/10 05:43:43;;;;;;;1.08;0.55;;;;;;;13.41;100.00;98034.31;15283072;19;20070;-79
2022/09/10 05:48:49;;;;;;;2.25;0.68;;;;;;;13.53;100.00;98038.22;15298068;19;20006;-76
2022/09/10 05:53:59;;;;;;;1.35;0.60;;;;;;;13.66;100.00;98036.69;15278163;19;20018;-77
2022/09/10 05:59:09;;;;;;;;;;;;;;;13.78;100.00;98031.59;15281145;19;20503;-75
2022/09/10 06:04:20;;;;;;;1.42;0.50;;;;;;;13.87;100.00;98031.28;15283139;19;19919;-78
2022/09/10 06:09:30;;;;;;;1.40;0.50;;;;;;;13.90;100.00;98032.78;15290363;19;20022;-75
2022/09/10 06:14:40;;;;;;;1.50;0.65;;;;;;;13.91;100.00;98033.63;15284174;19;20021;-76
2022/09/10 06:19:46;;;;;;;0.85;0.35;;;;;;;13.95;100.00;98045.72;15296694;19;20485;-77
2022/09/10 06:24:57;;;;;;;1.50;0.60;;;;;;;13.98;100.00;98039.94;15293709;19;20011;-77
2022/09/10 06:30:02;;;;;;;1.33;0.50;;;;;;;13.98;100.00;98048.06;15296167;19;20014;-77
2022/09/10 06:35:08;;;;;;;0.90;0.60;;;;;;;14.01;100.00;98047.69;15305804;19;20015;-77
2022/09/10 06:40:21;;;;;;;1.80;0.50;;;;;;;14.07;100.00;98041.47;15301483;19;20079;-78
2022/09/10 06:45:26;;;;;;;1.77;0.70;;;;;;;14.15;100.00;98044.09;15344259;19;20002;-80
2022/09/10 06:50:54;;;;;;;1.33;0.68;;;;;;;14.27;100.00;98038.97;15323458;19;20019;-81
2022/09/10 06:56:07;;;;;;;;;;;;;;;14.43;100.00;98042.44;15303397;19;20010;-79
2022/09/10 07:01:14;;;;;;;1.25;0.60;;;;;;;14.59;100.00;98038.59;15305134;19;19929;-79
2022/09/10 07:06:23;;;;;;;;;;;;;;;14.78;100.00;98040.66;15307621;19;20023;-80
2022/09/10 07:11:35;;;;;;;1.92;0.70;;;;;;;14.99;100.00;98036.22;15301780;19;19911;-80
2022/09/10 07:16:46;;;;;;;2.10;0.70;;;;;;;15.24;100.00;98035.69;15301803;19;20019;-80
2022/09/10 07:21:52;;;;;;;1.23;0.52;;;;;;;15.39;100.00;98039.13;15301652;19;20018;-82
2022/09/10 07:27:00;;;;;;;1.05;0.60;;;;;;;15.51;100.00;98047.53;15305613;19;20488;-81
2022/09/10 07:32:05;;;;;;;2.03;0.60;;;;;;;15.57;100.00;98051.31;15301212;19;20131;-81
2022/09/10 07:37:16;;;;;;;0.85;0.47;;;;;;;15.58;100.00;98058.44;15307933;19;20017;-80
2022/09/10 07:42:24;;;;;;;1.70;0.57;;;;;;;15.61;100.00;98062.63;15301630;19;20015;-82
2022/09/10 07:47:29;;;;;;;1.33;0.55;;;;;;;15.66;100.00;98060.97;15306177;19;20018;-82
2022/09/10 07:52:35;;;;;;;1.92;0.70;;;;;;;15.74;100.00;98067.25;15298952;19;20040;-81
2022/09/10 07:57:44;;;;;;;1.42;0.60;;;;;;;15.81;100.00;98057.25;15304560;19;20796;-80
2022/09/10 08:02:49;;;;;;;1.33;0.60;;;;;;;15.89;100.00;98056.25;15295571;19;20035;-81
2022/09/10 08:07:58;;;;;;;1.30;0.60;;;;;;;15.91;100.00;98062.31;15299147;19;20020;-81
2022/09/10 08:13:08;;;;;;;0.68;0.40;;;;;;;16.01;100.00;98062.75;15297658;19;20018;-80
2022/09/10 08:18:15;;;;;;;0.73;0.40;;;;;;;16.35;100.00;98063.66;15301194;19;20025;-81
2022/09/10 08:23:19;;;;;;;1.27;0.50;;;;;;;16.72;100.00;98064.09;15293111;19;20035;-80
2022/09/10 08:28:28;;;;;;;2.47;0.70;;;;;;;17.00;100.00;98070.38;15298375;19;20384;-80
2022/09/10 08:33:33;;;;;;;1.02;0.43;;;;;;;17.04;100.00;98077.06;15296893;19;20011;-82
2022/09/10 08:38:41;;;;;;;1.25;0.50;;;;;;;17.04;100.00;98079.78;15297984;19;20094;-80
2022/09/10 08:43:56;;;;;;;1.08;0.55;;;;;;;17.06;100.00;98080.44;15304722;19;20014;-80
2022/09/10 08:49:13;;;;;;;1.35;0.50;;;;;;;17.18;100.00;98081.44;15352746;19;20002;-84
2022/09/10 08:54:24;;;;;;;0.40;0.30;;;;;;;17.31;100.00;98079.75;15335977;19;20430;-81
2022/09/10 08:59:35;;;;;;;1.30;0.50;;;;;;;17.54;100.00;98077.38;15327368;19;20014;-80
2022/09/10 09:04:46;;;;;;;0.82;0.40;;;;;;;17.59;100.00;98079.44;15295419;19;20038;-79
2022/09/10 09:09:53;;;;;;;3.10;0.50;;;;;;;17.69;100.00;98076.28;15296605;19;20014;-81
2022/09/10 09:15:12;;;;;;;1.65;0.38;;;;;;;17.71;100.00;98072.28;15301712;19;20017;-82
2022/09/10 09:20:21;;;;;;;0.50;0.40;;;;;;;17.82;100.00;98065.28;15300800;19;20035;-82
2022/09/10 09:25:34;;;;;;;0.40;0.40;;;;;;;18.05;100.00;98066.66;15297369;19;20489;-80
2022/09/10 09:30:48;;;;;;;1.10;0.40;;;;;;;18.21;100.00;98064.50;15303513;19;20011;-81
2022/09/10 09:35:59;;;;;;;1.27;0.50;;;;;;;18.51;100.00;98050.25;15327855;19;20018;-80
2022/09/10 09:41:10;;;;;;;1.00;0.50;;;;;;;18.54;100.00;98047.91;15315160;19;20025;-84
2022/09/10 09:46:20;;;;;;;0.60;0.40;;;;;;;19.02;100.00;98038.25;15313353;19;20027;-82
2022/09/10 09:51:29;;;;;;;1.27;0.40;;;;;;;19.20;100.00;98039.34;15319983;19;20011;-81
2022/09/10 09:56:41;;;;;;;1.33;0.50;;;;;;;19.16;100.00;98041.69;15325494;19;20021;-83
2022/09/10 10:01:50;;;;;;;0.57;0.43;;;;;;;19.27;100.00;98039.28;15313230;19;20014;-83
2022/09/10 10:06:57;;;;;;;0.75;0.40;;;;;;;19.35;100.00;98033.50;15323309;19;20018;-80
2022/09/10 10:12:04;;;;;;;0.98;0.40;;;;;;;19.31;100.00;98026.81;15318703;19;20018;-78
2022/09/10 10:17:40;;;;;;;0.93;0.45;;;;;;;19.54;100.00;98028.88;15312919;19;20018;-75
2022/09/10 10:22:47;;;;;;;0.60;0.40;;;;;;;19.68;100.00;98024.06;15304146;19;20039;-77
2022/09/10 10:27:53;;;;;;;1.63;0.60;;;;;;;19.85;100.00;98014.16;15310582;19;20070;-79
2022/09/10 10:33:03;;;;;;;1.00;0.47;;;;;;;19.78;100.00;98013.41;15334663;19;20010;-79
2022/09/10 10:38:25;;;;;;;1.00;0.50;;;;;;;19.63;100.00;98027.47;15322158;19;20129;-77
2022/09/10 10:43:40;;;;;;;0.73;0.40;;;;;;;18.77;100.00;98041.00;15302891;19;20011;-79
2022/09/10 10:49:02;;;;;;;2.30;0.70;;;;;;;17.51;100.00;98056.00;15302891;19;20232;-78
2022/09/10 10:54:29;;;;;;;2.25;0.60;;;;;;;16.81;100.00;98067.44;15308501;19;20479;-78
2022/09/10 10:59:51;;;;;;;2.55;0.70;;;;;;;15.97;100.00;98092.22;15298998;19;20022;-80
2022/09/10 11:05:01;;;;;;;3.03;0.80;;;;;;;15.75;100.00;98094.22;15299326;19;20018;-80
2022/09/10 11:10:18;;;;;;;1.80;0.70;;;;;;;15.50;100.00;98088.44;15304725;19;20014;-80
2022/09/10 11:15:32;;;;;;;1.98;0.70;;;;;;;15.49;100.00;98082.19;15309630;19;20018;-80
2022/09/10 11:20:44;;;;;;;1.38;0.50;;;;;;;15.57;100.00;98073.88;15298315;19;20015;-77
2022/09/10 11:25:56;;;;;;;1.63;0.55;;;;;;;15.69;100.00;98082.28;15299034;19;20014;-81
2022/09/10 11:31:08;;;;;;;1.02;0.52;;;;;;;15.82;100.00;98067.91;15292050;19;20535;-77
2022/09/10 11:36:24;;;;;;;2.22;0.60;;;;;;;15.97;100.00;98067.78;15291675;19;20015;-80
2022/09/10 11:41:32;;;;;;;1.60;0.60;;;;;;;16.12;100.00;98062.16;15290895;19;20531;-76
2022/09/10 11:46:42;;;;;;;2.47;0.60;;;;;;;16.31;100.00;98057.81;15293346;19;20024;-77
2022/09/10 11:51:50;;;;;;;2.00;0.50;;;;;;;16.54;100.00;98048.41;15294912;19;20027;-77
2022/09/10 11:57:02;;;;;;;1.75;0.55;;;;;;;16.64;100.00;98040.66;15296611;19;20007;-77
2022/09/10 12:02:25;;;;;;;0.70;0.40;;;;;;;16.86;100.00;98047.75;15270302;19;20034;-78
2022/09/10 12:07:44;;;;;;;3.05;0.57;;;;;;;17.02;100.00;98047.34;15287347;19;20025;-77
2022/09/10 12:12:52;;;;;;;0.88;0.50;;;;;;;17.13;100.00;98034.97;15287225;19;20011;-77
2022/09/10 12:18:00;;;;;;;1.65;0.57;;;;;;;17.21;100.00;98042.06;15289986;19;20542;-78
2022/09/10 12:23:08;;;;;;;2.42;0.47;;;;;;;17.23;100.00;98048.97;15281278;19;20355;-77
2022/09/10 12:28:44;;;;;;;1.02;0.50;;;;;;;17.29;100.00;98035.56;15286374;19;20007;-78
2022/09/10 12:34:12;;;;;;;1.55;0.60;;;;;;;17.44;100.00;98038.00;15288088;19;20018;-77
2022/09/10 12:39:26;;;;;;;1.15;0.60;;;;;;;17.70;100.00;98037.06;15284999;19;20018;-77
2022/09/10 12:44:45;;;;;;;0.75;0.47;;;;;;;17.85;100.00;98018.53;15282187;19;20023;-78
2022/09/10 12:49:51;;;;;;;0.98;0.47;;;;;;;18.20;100.00;98016.47;15277910;19;20426;-76
2022/09/10 12:55:09;;;;;;;1.10;0.60;;;;;;;18.34;100.00;98004.41;15278771;19;20082;-78
2022/09/10 13:00:24;;;;;;;3.35;0.70;;;;;;;18.66;100.00;98011.72;15280346;19;20018;-77
2022/09/10 13:05:33;;;;;;;0.77;0.40;;;;;;;18.72;100.00;98005.34;15280477;19;20092;-76
2022/09/10 13:10:42;;;;;;;0.57;0.32;;;;;;;18.50;100.00;98002.19;15276007;19;20020;-78
2022/09/10 13:15:52;;;;;;;1.33;0.50;;;;;;;18.43;100.00;98000.34;15281531;19;20014;-77
2022/09/10 13:20:57;;;;;;;1.17;0.50;;;;;;;18.63;100.00;97996.63;15279520;19;20162;-76
2022/09/10 13:26:51;;;;;;;0.82;0.50;;;;;;;18.62;100.00;97993.03;15275089;19;20069;-76
2022/09/10 13:32:03;;;;;;;0.93;0.50;;;;;;;19.03;100.00;97979.84;15277421;19;20427;-77
2022/09/10 13:37:36;;;;;;;0.75;0.45;;;;;;;19.14;100.00;97982.88;15277291;19;20014;-79
2022/09/10 13:43:27;;;;;;;4.22;0.60;;;;;;;18.99;100.00;97973.22;15271194;19;20014;-78
2022/09/10 13:48:43;;;;;;;1.13;0.43;;;;;;;19.14;100.00;97980.16;15272993;19;20042;-77
2022/09/10 13:53:49;;;;;;;0.85;0.30;;;;;;;19.05;100.00;97980.47;15275669;19;20023;-77
2022/09/10 13:59:02;;;;;;;0.20;0.20;;;;;;;19.02;100.00;97978.19;15277614;19;20014;-79
2022/09/10 14:04:28;;;;;;;0.40;0.20;;;;;;;19.00;100.00;97968.56;15288829;19;20014;-76
2022/09/10 14:09:36;;;;;;;0.45;0.22;;;;;;;19.08;100.00;97969.09;15319537;19;20018;-77
2022/09/10 14:14:46;;;;;;;0.82;0.30;;;;;;;19.11;100.00;97972.44;15288671;19;20018;-78
2022/09/10 14:19:56;;;;;;;0.73;0.25;;;;;;;19.05;100.00;97972.28;15278325;19;20032;-76
2022/09/10 14:25:04;;;;;;;0.52;0.30;;;;;;;19.22;100.00;97974.41;15288480;19;20017;-77
2022/09/10 14:30:30;;;;;;;0.82;0.30;;;;;;;19.06;100.00;97970.38;15313953;19;20021;-78
2022/09/10 14:35:41;;;;;;;0.43;0.35;;;;;;;19.06;100.00;97967.66;15331624;19;20535;-78
2022/09/10 14:40:49;;;;;;;0.30;0.25;;;;;;;18.92;100.00;97961.47;15296313;19;20106;-78
2022/09/10 14:45:56;;;;;;;0.40;0.17;;;;;;;18.78;100.00;97967.06;15298036;19;20010;-77
2022/09/10 14:51:16;;;;;;;0.20;0.10;;;;;;;18.71;100.00;97960.00;15283316;19;20011;-76
2022/09/10 14:56:27;;;;;;;0.35;0.15;;;;;;;18.75;100.00;97973.00;15298054;19;20031;-76
2022/09/10 15:01:34;;;;;;;0.77;0.40;;;;;;;18.78;100.00;97964.34;15286764;19;20708;-76
2022/09/10 15:06:39;;;;;;;0.77;0.38;;;;;;;18.86;100.00;97967.84;15294239;19;20477;-76
2022/09/10 15:11:51;;;;;;;0.70;0.30;;;;;;;18.88;100.00;97963.81;15290415;19;20027;-75
2022/09/10 15:16:58;;;;;;;;;;;;;;;19.17;100.00;97961.41;15297650;19;20118;-78
2022/09/10 15:22:02;;;;;;;0.25;0.20;;;;;;;19.46;100.00;97966.34;15288403;19;19922;-77
2022/09/10 15:27:07;;;;;;;0.20;0.20;;;;;;;19.37;100.00;97963.91;15293992;19;20022;-75
2022/09/10 15:32:15;;;;;;;0.20;0.20;;;;;;;19.38;100.00;97965.56;15282714;19;20007;-77
2022/09/10 15:37:23;;;;;;;0.20;0.20;;;;;;;19.44;100.00;97976.66;15284591;19;20011;-77
2022/09/10 15:42:27;;;;;;;0.30;0.20;;;;;;;19.35;100.00;97978.88;15281667;19;20038;-78
2022/09/10 15:47:35;;;;;;;0.15;0.10;;;;;;;19.42;100.00;97976.06;15294570;19;20011;-79
2022/09/10 15:52:39;;;;;;;0.20;0.10;;;;;;;19.82;100.00;97979.09;15287920;19;20188;-78
2022/09/10 15:57:44;;;;;;;0.98;0.20;;;;;;;19.73;100.00;97976.91;15297938;19;20030;-78
2022/09/10 16:02:55;;;;;;;0.60;0.22;;;;;;;19.43;100.00;97980.47;15283357;19;20300;-78
2022/09/10 16:07:59;;;;;;;0.20;0.17;;;;;;;19.26;100.00;97983.78;15285891;19;20021;-78
2022/09/10 16:13:04;;;;;;;0.60;0.20;;;;;;;18.96;100.00;97984.56;15287608;19;20802;-79
2022/09/10 16:18:11;;;;;;;0.45;0.20;;;;;;;18.83;100.00;97984.66;15289735;19;20026;-75
2022/09/10 16:23:16;;;;;;;0.70;0.30;;;;;;;18.73;100.00;97996.94;15281180;19;20014;-78
2022/09/10 16:28:21;;;;;;;0.50;0.20;;;;;;;18.58;100.00;98001.91;15276189;19;20147;-76
2022/09/10 16:33:28;;;;;;;0.38;0.30;;;;;;;18.41;100.00;98007.09;15282401;19;20022;-78
2022/09/10 16:38:33;;;;;;;0.55;0.40;;;;;;;18.26;100.00;98000.06;15279229;19;20031;-77
2022/09/10 16:43:38;;;;;;;0.38;0.32;;;;;;;18.07;100.00;98014.69;15282549;19;20007;-75
2022/09/10 16:48:46;;;;;;;1.30;0.40;;;;;;;17.85;100.00;98009.53;15281445;19;20321;-77
2022/09/10 16:53:57;;;;;;;0.28;0.20;;;;;;;17.69;100.00;98009.00;15276611;19;20022;-77
2022/09/10 16:59:02;;;;;;;1.42;0.43;;;;;;;17.61;100.00;98016.56;15280195;19;20019;-79
2022/09/10 17:04:09;;;;;;;1.95;0.40;;;;;;;17.42;100.00;98016.47;15290725;19;20022;-78
2022/09/10 17:09:15;;;;;;;1.08;0.20;;;;;;;17.26;100.00;98015.06;15295894;19;20015;-78
2022/09/10 17:14:19;;;;;;;0.82;0.25;;;;;;;17.08;100.00;98022.00;15291463;19;20028;-78
2022/09/10 17:19:28;;;;;;;0.75;0.20;;;;;;;16.97;100.00;98027.28;15288530;19;20035;-78
2022/09/10 17:24:32;;;;;;;0.30;0.25;;;;;;;16.82;100.00;98022.03;15287327;19;20038;-82
2022/09/10 17:29:37;;;;;;;1.73;0.20;;;;;;;16.70;100.00;98021.84;15282994;19;20022;-77
2022/09/10 17:34:45;;;;;;;0.95;0.30;;;;;;;16.54;100.00;98029.38;15297496;19;20030;-80
2022/09/10 17:39:50;;;;;;;0.20;0.20;;;;;;;16.42;100.00;98041.91;15304668;19;20011;-80
2022/09/10 17:44:55;;;;;;;0.20;0.10;;;;;;;16.31;100.00;98044.22;15292757;19;20020;-78
2022/09/10 17:50:02;;;;;;;0.80;0.20;;;;;;;16.20;100.00;98044.81;15295097;19;20361;-79
2022/09/10 17:55:09;;;;;;;0.20;0.20;;;;;;;16.00;100.00;98053.78;15293875;19;20007;-79
2022/09/10 18:00:15;;;;;;;1.00;0.30;;;;;;;15.87;100.00;98056.47;15287554;19;20018;-77
2022/09/10 18:05:25;;;;;;;0.38;0.30;;;;;;;15.82;100.00;98053.47;15272576;19;20007;-81
2022/09/10 18:10:29;;;;;;;0.30;0.20;;;;;;;15.77;100.00;98058.69;15277826;19;20034;-77
2022/09/10 18:15:35;;;;;;;0.30;0.20;;;;;;;15.74;100.00;98065.38;15300548;19;20415;-78
2022/09/10 18:20:42;;;;;;;0.40;0.20;;;;;;;15.71;100.00;98069.31;15294296;19;20070;-77
2022/09/10 18:25:47;;;;;;;3.33;0.20;;;;;;;15.65;100.00;98074.72;15314839;19;20006;-76
2022/09/10 18:30:53;;;;;;;0.93;0.20;;;;;;;15.60;100.00;98085.38;15344227;19;20017;-77
2022/09/10 18:36:00;;;;;;;1.33;0.20;;;;;;;15.57;100.00;98082.03;15284267;19;20031;-77
2022/09/10 18:41:05;;;;;;;0.52;0.30;;;;;;;15.57;100.00;98101.03;15280305;19;20018;-77
2022/09/10 18:46:10;;;;;;;0.40;0.40;;;;;;;15.57;100.00;98100.19;15287360;19;20086;-77
2022/09/10 18:51:23;;;;;;;0.93;0.50;;;;;;;15.55;100.00;98105.00;15289794;19;20014;-77
2022/09/10 18:56:31;;;;;;;0.63;0.43;;;;;;;15.50;100.00;98102.88;15291547;19;20386;-77
2022/09/10 19:01:39;;;;;;;0.50;0.32;;;;;;;15.49;100.00;98098.50;15287467;19;20022;-78
2022/09/10 19:06:48;;;;;;;0.68;0.40;;;;;;;15.48;100.00;98101.38;15283952;19;20017;-77
2022/09/10 19:11:54;;;;;;;0.40;0.40;;;;;;;15.45;100.00;98109.94;15289785;19;20022;-78
2022/09/10 19:17:00;;;;;;;0.50;0.50;;;;;;;15.43;100.00;98109.31;15307550;19;20018;-81
2022/09/10 19:22:09;;;;;;;2.28;0.40;;;;;;;15.43;100.00;98112.03;15302165;19;20018;-79
2022/09/10 19:27:15;;;;;;;2.53;1.70;;;;;;;15.40;100.00;98116.81;15335038;19;20014;-79
2022/09/10 19:32:20;;;;;;;2.42;2.10;;;;;;;15.41;100.00;98120.34;15299378;19;20018;-79
2022/09/10 19:37:28;;;;;;;2.97;2.50;;;;;;;15.39;100.00;98120.56;15292027;19;20049;-82
2022/09/10 19:42:32;;;;;;;4.15;2.40;;;;;;;15.38;100.00;98121.59;15298505;19;20010;-79
2022/09/10 19:47:37;;;;;;;2.55;1.90;;;;;;;15.35;100.00;98126.59;15295574;19;20018;-80
2022/09/10 19:52:44;;;;;;;2.75;1.42;;;;;;;15.32;100.00;98129.69;15298347;19;20020;-79
2022/09/10 19:57:49;;;;;;;1.20;0.90;;;;;;;15.29;100.00;98130.94;15297321;19;20006;-79
2022/09/10 20:02:53;;;;;;;2.28;1.00;;;;;;;15.28;100.00;98128.44;15296935;19;20010;-79
2022/09/10 20:08:00;;;;;;;1.48;0.68;;;;;;;15.28;100.00;98129.25;15297754;19;20017;-78
2022/09/10 20:13:07;;;;;;;1.58;0.90;;;;;;;15.23;100.00;98124.44;15289267;19;20828;-78
2022/09/10 20:18:12;;;;;;;1.20;0.90;;;;;;;15.20;100.00;98122.09;15284879;19;20026;-79
2022/09/10 20:23:19;;;;;;;1.45;1.00;;;;;;;15.19;100.00;98119.59;15290838;19;20411;-78
2022/09/10 20:28:24;;;;;;;0.95;0.77;;;;;;;15.12;100.00;98124.13;15290908;19;22434;-80
2022/09/10 20:33:29;;;;;;;1.08;0.80;;;;;;;15.09;100.00;98120.81;15287591;19;20014;-78
2022/09/10 20:38:36;;;;;;;1.88;0.80;;;;;;;15.04;100.00;98125.97;15297327;19;20006;-78
2022/09/10 20:43:42;;;;;;;1.65;0.90;;;;;;;15.01;100.00;98123.63;15269544;19;20017;-80
2022/09/10 20:48:47;;;;;;;0.70;0.60;;;;;;;14.99;100.00;98128.44;15295951;19;20031;-78
2022/09/10 20:53:55;;;;;;;1.40;0.75;;;;;;;14.97;100.00;98127.81;15290727;19;20038;-80
2022/09/10 20:59:00;;;;;;;0.88;0.70;;;;;;;14.94;100.00;98122.75;15297467;19;20014;-80
2022/09/10 21:04:05;;;;;;;1.00;0.60;;;;;;;14.91;100.00;98117.72;15287778;19;20014;-81
2022/09/10 21:09:13;;;;;;;1.50;0.70;;;;;;;14.90;100.00;98127.75;15292371;19;20317;-79
2022/09/10 21:14:19;;;;;;;1.20;0.70;;;;;;;14.84;100.00;98130.41;15284160;19;20017;-80
2022/09/10 21:19:25;;;;;;;1.25;0.88;;;;;;;14.78;100.00;98137.44;15292443;19;20027;-80
2022/09/10 21:24:32;;;;;;;1.77;1.00;;;;;;;14.75;100.00;98130.56;15288017;19;20341;-81
2022/09/10 21:29:36;;;;;;;2.42;1.00;;;;;;;14.70;100.00;98137.59;15293072;19;20029;-80
2022/09/10 21:34:41;;;;;;;2.00;1.15;;;;;;;14.62;100.00;98133.13;15289464;19;20387;-80
2022/09/10 21:39:48;;;;;;;2.60;0.90;;;;;;;14.57;100.00;98133.69;15272679;19;20502;-81
2022/09/10 21:44:53;;;;;;;1.80;1.08;;;;;;;14.49;100.00;98140.09;15293905;19;20013;-80
2022/09/10 21:49:58;;;;;;;4.15;1.50;;;;;;;14.35;100.00;98145.56;15298154;19;20027;-79
2022/09/10 21:55:05;;;;;;;2.05;1.20;;;;;;;14.29;100.00;98147.16;15302279;19;20015;-79
2022/09/10 22:00:14;;;;;;;1.42;1.10;;;;;;;14.22;100.00;98157.09;15301277;19;20041;-79
2022/09/10 22:05:19;;;;;;;2.35;1.40;;;;;;;14.11;100.00;98153.84;15295945;19;20039;-79
2022/09/10 22:10:28;;;;;;;2.47;1.33;;;;;;;14.08;100.00;98156.94;15300846;19;20022;-79
2022/09/10 22:15:32;;;;;;;1.80;1.20;;;;;;;14.06;100.00;98164.41;15343133;19;20014;-78
2022/09/10 22:20:38;;;;;;;1.38;1.00;;;;;;;14.05;100.00;98156.47;15326102;19;20022;-80
2022/09/10 22:25:45;;;;;;;2.30;1.10;;;;;;;14.05;100.00;98159.19;15289658;19;20031;-80
2022/09/10 22:30:49;;;;;;;1.95;1.10;;;;;;;14.02;100.00;98158.53;15287623;19;20093;-79
2022/09/10 22:35:54;;;;;;;1.75;1.30;;;;;;;14.01;100.00;98161.44;15288643;19;20046;-79
2022/09/10 22:41:06;;;;;;;1.48;1.17;;;;;;;13.99;100.00;98171.63;15293137;19;20010;-80
2022/09/10 22:46:11;;;;;;;;;;;;;;;13.97;100.00;98160.13;15287514;19;20027;-79
2022/09/10 22:51:18;;;;;;;1.77;1.30;;;;;;;13.94;100.00;98171.34;15286021;19;19974;-80
2022/09/10 22:56:27;;;;;;;1.15;1.05;;;;;;;13.89;100.00;98169.19;15294722;19;20347;-80
2022/09/10 23:01:35;;;;;;;2.05;1.30;;;;;;;13.86;100.00;98170.41;15287890;19;20820;-79
2022/09/10 23:06:40;;;;;;;3.65;1.27;;;;;;;13.83;100.00;98170.78;15285434;19;20021;-80
2022/09/10 23:11:48;;;;;;;1.27;1.10;;;;;;;13.79;100.00;98180.34;15290011;19;20090;-79
2022/09/10 23:16:53;;;;;;;1.42;1.10;;;;;;;13.75;100.00;98179.03;15290976;19;20026;-81
2022/09/10 23:21:57;;;;;;;1.20;1.10;;;;;;;13.71;100.00;98175.84;15288219;19;20014;-80
2022/09/10 23:27:05;;;;;;;2.42;1.02;;;;;;;13.68;100.00;98183.53;15283269;19;20406;-78
2022/09/10 23:32:09;;;;;;;2.95;1.10;;;;;;;13.65;100.00;98189.31;15286307;19;20049;-77
2022/09/10 23:37:15;;;;;;;3.45;1.20;;;;;;;13.61;100.00;98190.69;15292272;19;20033;-78
2022/09/10 23:42:22;;;;;;;1.60;1.15;;;;;;;13.59;100.00;98200.84;15288613;19;20026;-78
2022/09/10 23:47:27;;;;;;;1.40;1.30;;;;;;;13.56;100.00;98194.81;15285236;19;20031;-79